MET'MAP v2.0
soon released !

Expected late october,
this new version will be
more efficient, smarter,
and hosted on a brand new
server x3 powerfull...
...and still free !


Not compatible ?
Try the mobile version !

LOG IN : | Subscribe | Disclaimer | Who is Orbifly ? |
ICAO code :
Legend : VFR Marginal VFR IFR Intensive IFR Very Intensive IFR
Visi :
Ceiling :
>= 8 km
>= 3000ft
5 to 8 km
1000 to 3000 ft
1500m to 5 km
500 to 1000 ft
800 to 1500m
200 to 500 ft
< 800m
< 200 ft

METAR - ETHA Altenstadt Army Airfield - 27 May 2020 19:09 UTC
Data Sources :     NOAA   


- Airport Elevation : 2425 ft
- No reported NOTAMs.


ETHA - Altenstadt Army Airfield

Latest METAR recorded : 2015/08/11 07:20 ETHA 110720Z 23004KT 8000 FEW008 BKN015 BKN080 20/18 Q1019 WHT WHT BECMG BLU
TAF TAF ETHA
Valid from the 27 at 14:00 until the 27 at 23:00 UTC


271320Z 2714/2723 07008G18KT 9999 NSW FEW050
BECMG 2717/2719 05007KT 9999 NSW FEW050 BKN260

Source NOAA


MET'MAP, your aeronautical weather chart ! - Copyright ORBIFLY December 2007

Programming & Development : Alexandra Zaïnal
Co-Developer : Marc-Olivier Méhu
Technical & hardware support : Manuel Goepfert
Concept & Financing : Baudouin d'Aumeries